Aviation Digital Data Service (ADDS)

Output produced by METARs form (0724 UTC 21 February 2017)
found at http://www.aviationweather.gov/adds/metars/
 
SEGU 210700Z 31003KT 9999 FEW007 BKN026 BKN100 27/24 Q1012 NOSIG RMK A2988
SEGU 210330Z 2106/2206 27007KT 9999 RA FEW010 BKN020 OVC080 
     TEMPO 2109/2110 TS FEW020CB BKN023 
     FM211300 04006KT 9999 FEW010 SCT020 BKN090 
     FM211800 07005KT 9999 SCT026 SCT100 
     TEMPO 2122/2124 8000 SHRA BKN020TCU 
     FM220000 22008KT 9999 SCT020 BKN090 TX32/2120Z TN24/2110Z
       
SEMT 210600Z 31004KT 9999 OVC023 28/25 Q1013 RMK A2992
SEMT 210345Z 2106/2206 20004KT 9999 BKN023 BKN100 
     FM211400 VRB03KT 9999 SCT030 BKN100 TX30/2120Z TN25/2110Z